Saturday, October 20, 2018, 10:09 PM EDT
Back to Local

KALB, Albany International Airport

Location: Latham, NY, United States Lat: 42.75
Local Time: 10:09 PM EDT ( 2:09 GMT) Lon: -73.8
Time Zone: US/Eastern Elev: 285 ft

Show me the last for .
Show Coded

Time T Td Feel RH Dir Speed Gust Alt SLP Vis Weather Sky Remarks
2018-10-20 21:51 48 42 46 79 230° 5 - 29.62 29.62 10 OVC095 None
2018-10-20 20:51 48 43 45 82 220° 6 - 29.62 29.62 10 FEW045 OVC080 1-hr Precip Total: Trace
2018-10-20 19:51 50 42 46 74 240° 10 - 29.64 29.63 10 -RA OVC045 1-hr Precip Total: 0.01"
6-hr Precip Total (8pm): 0.01"
6-hr Min Temp (8pm): 48.9°F
6-hr Max Temp (8pm): 62.1°F
2018-10-20 18:51 53 38 - 56 270° 7 - 29.60 29.60 10 -RA BKN060 BKN090 BKN130 1-hr Precip Total: Trace
2018-10-20 17:51 55 36 - 48 210° 3 - 29.58 29.58 10 FEW075 FEW100 BKN130 None
2018-10-20 16:51 58 35 - 42 290° 12 - 29.57 29.57 10 FEW075 FEW100 None
2018-10-20 15:51 58 36 - 43 320° 12 - 29.59 29.59 10 FEW047 SCT065 BKN090 None
2018-10-20 14:51 58 36 - 43 260° 8 - 29.60 29.59 10 FEW047 BKN070 BKN085 None
2018-10-20 13:51 61 40 - 45 270° 15 23 29.61 29.61 10 FEW044 SCT060 BKN090 6-hr Precip Total (2pm): 0.00"
6-hr Min Temp (2pm): 53.1°F
6-hr Max Temp (2pm): 62.1°F
2018-10-20 12:51 59 45 - 59 250° 8 - 29.64 29.64 10 SCT038 BKN060 BKN090 1-hr Precip Total: Trace
2018-10-20 11:51 58 45 - 61 310° 9 - 29.65 29.65 10 SCT041 BKN049 BKN065 1-hr Precip Total: Trace
2018-10-20 10:51 57 45 - 63 230° 8 - 29.65 29.65 10 FEW038 BKN041 OVC049 Breaks in overcast
2018-10-20 09:51 56 46 - 69 190° 9 - 29.66 29.65 10 FEW037 BKN040 BKN060 None
2018-10-20 08:51 53 45 - 73 160° 10 - 29.65 29.65 10 FEW037 BKN046 OVC060 Breaks in overcast
2018-10-20 07:51 53 45 - 73 160° 9 - 29.64 29.64 10 FEW037 BKN041 OVC060 Breaks in overcast
6-hr Precip Total (8am): 0.00"
6-hr Min Temp (8am): 52.0°F
6-hr Max Temp (8am): 53.1°F
2018-10-20 06:51 52 44 - 74 170° 7 - 29.64 29.64 10 FEW035 SCT043 OVC055 None
2018-10-20 05:51 53 43 - 68 180° 10 - 29.64 29.63 10 BKN042 OVC050 None
2018-10-20 04:51 53 42 - 66 190° 12 - 29.65 29.65 10 OVC046 6-hr Precip Total (5am): 0.00"
2018-10-20 03:51 53 41 - 63 180° 10 - 29.67 29.67 10 BKN055 OVC070 1-hr Precip Total: Trace
2018-10-20 02:51 53 40 - 60 180° 12 - 29.71 29.71 10 -RA BKN075 OVC090 1-hr Precip Total: Trace
2018-10-20 01:51 52 39 - 61 180° 12 23 29.74 29.74 10 FEW070 OVC100 6-hr Precip Total (2am): 0.00"
6-hr Min Temp (2am): 52.0°F
6-hr Max Temp (2am): 55.0°F
2018-10-20 00:51 53 37 - 54 170° 12 - 29.77 29.77 10 FEW085 BKN100 OVC120 1-hr Precip Total: Trace
24-hr Min Temp (1am): 28.9°F
24-hr Max Temp (1am): 60.1°F
2018-10-19 23:51 53 35 - 50 160° 9 - 29.79 29.79 10 FEW110 BKN130 OVC160 None
2018-10-19 22:51 53 34 - 48 170° 10 - 29.84 29.84 10 FEW110 BKN160 OVC250 None

Support USWX by starting your Amazon purchase here.